Terminal Aerodrome Forecast
Issued by NWS

Home | Current Version | Previous Version | Text Only | Print | Product List | Glossary On
Versions: 1 2 3 4 5 6 7 8 9 10 11 12 13 14 15 16 17 18 19 20
000
FTUS45 KSLC 262354
TAFBCE
TAF
KBCE 262354Z 2700/2724 20012KT P6SM FEW025 OVC060
     FM270200 19008KT P6SM VCSH BKN040
     FM271200 21012KT P6SM -SHSN BKN020
     FM271400 22015G26KT 2SM -SN BR BKN010
     FM272000 23020G30KT 2SM -SN BR BKN010=

USA.gov is the U.S. government's official web portal to all federal, state and local government web resources and services.